createdAt,value
2023-03-31T00:00:47.080Z,11.32
2023-03-31T00:03:22.624Z,11.29
2023-03-31T00:05:55.150Z,11.23
2023-03-31T00:08:22.754Z,11.12
2023-03-31T00:10:50.076Z,10.86
2023-03-31T00:13:17.558Z,10.91
2023-03-31T00:15:46.080Z,10.84
2023-03-31T00:18:13.249Z,10.66
2023-03-31T00:20:43.017Z,10.60
2023-03-31T00:23:11.297Z,10.56
2023-03-31T00:25:41.876Z,10.52
2023-03-31T00:28:09.092Z,10.47
2023-03-31T00:30:36.736Z,10.42
2023-03-31T00:33:04.746Z,10.53
2023-03-31T00:35:32.159Z,10.55
2023-03-31T00:37:59.834Z,10.51
2023-03-31T00:40:26.996Z,10.44
2023-03-31T00:42:54.192Z,10.39
2023-03-31T00:45:25.120Z,10.39
2023-03-31T00:48:10.432Z,10.42
2023-03-31T00:50:47.011Z,10.40
2023-03-31T00:53:16.496Z,10.24
2023-03-31T00:55:47.734Z,10.12
2023-03-31T00:58:15.283Z,9.92
2023-03-31T01:00:42.890Z,9.81
2023-03-31T01:03:11.239Z,9.75
2023-03-31T01:05:50.192Z,9.61
2023-03-31T01:08:19.475Z,9.57
2023-03-31T01:10:51.661Z,9.51
2023-03-31T01:13:20.015Z,9.46
2023-03-31T01:15:47.307Z,9.26
2023-03-31T01:18:16.414Z,9.21
2023-03-31T01:21:18.640Z,9.13
2023-03-31T01:24:04.758Z,9.09
2023-03-31T01:26:59.090Z,9.10
2023-03-31T01:30:04.078Z,9.23
2023-03-31T01:32:59.437Z,9.48
2023-03-31T01:35:29.323Z,9.71
2023-03-31T01:38:05.843Z,9.86
2023-03-31T01:40:36.127Z,9.94
2023-03-31T01:43:20.966Z,10.00
2023-03-31T01:46:06.988Z,10.03
2023-03-31T01:49:19.138Z,10.05
2023-03-31T01:52:08.342Z,9.99
2023-03-31T01:54:56.020Z,9.99
2023-03-31T01:57:31.062Z,9.94
2023-03-31T02:00:03.378Z,9.87
2023-03-31T02:03:02.485Z,9.85
2023-03-31T02:05:37.984Z,9.88
2023-03-31T02:08:10.746Z,9.85
2023-03-31T02:10:39.493Z,9.83
2023-03-31T02:13:07.153Z,9.72
2023-03-31T02:15:38.344Z,9.61
2023-03-31T02:18:11.449Z,9.51
2023-03-31T02:20:42.345Z,9.43
2023-03-31T02:23:12.843Z,9.29
2023-03-31T02:25:49.071Z,9.16
2023-03-31T02:28:22.747Z,9.09
2023-03-31T02:31:11.800Z,9.03
2023-03-31T02:33:41.127Z,9.05
2023-03-31T02:36:09.218Z,8.94
2023-03-31T02:38:40.220Z,8.78
2023-03-31T02:41:08.108Z,8.59
2023-03-31T02:43:35.269Z,8.62
2023-03-31T02:46:02.427Z,8.57
2023-03-31T02:48:43.289Z,8.36
2023-03-31T02:51:37.960Z,8.19
2023-03-31T02:54:20.652Z,8.13
2023-03-31T02:57:08.118Z,8.06
2023-03-31T03:00:02.136Z,7.86
2023-03-31T03:03:01.610Z,7.81
2023-03-31T03:05:49.948Z,7.75
2023-03-31T03:08:34.907Z,7.65
2023-03-31T03:11:02.349Z,7.58
2023-03-31T03:13:29.542Z,7.58
2023-03-31T03:16:04.106Z,7.51
2023-03-31T03:18:32.913Z,7.52
2023-03-31T03:21:00.148Z,7.50
2023-03-31T03:23:27.420Z,7.59
2023-03-31T03:25:55.773Z,7.60
2023-03-31T03:28:23.174Z,7.50
2023-03-31T03:30:50.470Z,7.50
2023-03-31T03:33:18.047Z,7.66
2023-03-31T03:35:45.288Z,7.59
2023-03-31T03:38:12.380Z,7.45
2023-03-31T03:40:39.833Z,7.30
2023-03-31T03:43:06.984Z,7.22
2023-03-31T03:45:34.191Z,7.23
2023-03-31T03:48:01.723Z,7.23
2023-03-31T03:50:28.957Z,7.18
2023-03-31T03:52:56.441Z,7.12
2023-03-31T03:55:23.904Z,7.02
2023-03-31T03:57:51.395Z,7.11
2023-03-31T04:00:18.926Z,7.17
2023-03-31T04:02:47.148Z,7.09
2023-03-31T04:05:14.629Z,7.17
2023-03-31T04:07:41.834Z,7.17
2023-03-31T04:10:09.611Z,7.22
2023-03-31T04:12:36.876Z,7.25
2023-03-31T04:15:04.953Z,7.28
2023-03-31T04:17:32.983Z,7.19
2023-03-31T04:20:04.646Z,7.16
2023-03-31T04:22:40.910Z,7.08
2023-03-31T04:25:16.718Z,7.07
2023-03-31T04:27:46.950Z,7.11
2023-03-31T04:30:22.779Z,7.18
2023-03-31T04:32:55.505Z,7.15
2023-03-31T04:35:24.628Z,7.19
2023-03-31T04:37:58.802Z,7.25
2023-03-31T04:40:26.670Z,7.24
2023-03-31T04:42:53.940Z,7.41
2023-03-31T04:45:21.145Z,7.42
2023-03-31T04:47:48.682Z,7.35
2023-03-31T04:50:17.125Z,7.37
2023-03-31T04:52:44.916Z,7.39
2023-03-31T04:55:12.423Z,7.40
2023-03-31T04:57:39.631Z,7.43
2023-03-31T05:00:07.986Z,7.45
2023-03-31T05:02:35.671Z,7.43
2023-03-31T05:05:03.835Z,7.63
2023-03-31T05:07:31.582Z,7.85
2023-03-31T05:09:59.080Z,8.08
2023-03-31T05:12:26.308Z,8.02
2023-03-31T05:14:53.540Z,8.04
2023-03-31T05:17:22.301Z,8.04
2023-03-31T05:19:49.608Z,8.21
2023-03-31T05:22:20.674Z,8.44
2023-03-31T05:24:48.324Z,8.76
2023-03-31T05:27:16.010Z,9.05
2023-03-31T05:29:43.945Z,9.26
2023-03-31T05:32:11.779Z,9.45
2023-03-31T05:34:39.085Z,9.68
2023-03-31T05:37:06.309Z,9.74
2023-03-31T05:39:33.789Z,9.63
2023-03-31T05:42:01.043Z,9.50
2023-03-31T05:44:28.383Z,9.81
2023-03-31T05:46:55.932Z,10.24
2023-03-31T05:49:23.172Z,10.54
2023-03-31T05:51:51.791Z,10.48
2023-03-31T05:54:19.394Z,10.46
2023-03-31T05:56:46.638Z,10.42
2023-03-31T05:59:15.081Z,10.63
2023-03-31T06:01:42.801Z,10.68
2023-03-31T06:04:10.391Z,10.89
2023-03-31T06:06:38.153Z,11.14
2023-03-31T06:09:06.066Z,11.18
2023-03-31T06:11:33.556Z,11.21
2023-03-31T06:14:00.688Z,11.39
2023-03-31T06:16:29.073Z,11.69
2023-03-31T06:18:56.772Z,11.85
2023-03-31T06:21:23.959Z,11.88
2023-03-31T06:23:55.122Z,12.08
2023-03-31T06:26:22.856Z,12.25
2023-03-31T06:28:49.988Z,12.62
2023-03-31T06:31:19.378Z,12.73
2023-03-31T06:33:47.591Z,12.86
2023-03-31T06:36:17.078Z,13.14
2023-03-31T06:38:44.639Z,13.35
2023-03-31T06:41:13.904Z,13.15
2023-03-31T06:43:41.227Z,13.17
2023-03-31T06:46:09.201Z,12.99
2023-03-31T06:48:37.194Z,13.29
2023-03-31T06:51:06.269Z,13.13
2023-03-31T06:53:34.026Z,12.67
2023-03-31T06:56:02.000Z,12.56
2023-03-31T06:58:31.439Z,12.89
2023-03-31T07:00:59.436Z,13.14
2023-03-31T07:03:27.089Z,13.39
2023-03-31T07:05:55.358Z,13.41
2023-03-31T07:08:23.286Z,13.63
2023-03-31T07:10:57.913Z,13.80
2023-03-31T07:13:25.770Z,13.82
2023-03-31T07:15:53.491Z,14.05
2023-03-31T07:18:21.020Z,14.17
2023-03-31T07:20:49.751Z,14.00
2023-03-31T07:23:17.167Z,14.12
2023-03-31T07:25:45.483Z,14.35
2023-03-31T07:28:12.687Z,14.38
2023-03-31T07:30:41.110Z,14.30
2023-03-31T07:33:08.713Z,14.33
2023-03-31T07:35:40.441Z,14.46
2023-03-31T07:38:09.733Z,14.56
2023-03-31T07:40:37.568Z,14.74
2023-03-31T07:43:05.369Z,14.69
2023-03-31T07:45:33.265Z,14.79
2023-03-31T07:48:00.482Z,14.92
2023-03-31T07:50:27.640Z,14.89
2023-03-31T07:52:55.537Z,14.85
2023-03-31T07:55:23.920Z,14.72
2023-03-31T07:57:51.500Z,14.66
2023-03-31T08:00:19.857Z,14.69
2023-03-31T08:02:47.312Z,14.80
2023-03-31T08:05:16.999Z,14.91
2023-03-31T08:07:46.616Z,15.11
2023-03-31T08:10:17.887Z,14.89
2023-03-31T08:12:45.005Z,14.77
2023-03-31T08:15:12.302Z,14.88
2023-03-31T08:17:40.371Z,14.78
2023-03-31T08:20:08.568Z,14.57
2023-03-31T08:22:37.834Z,14.67
2023-03-31T08:25:06.462Z,15.04
2023-03-31T08:27:38.175Z,14.99
2023-03-31T08:30:07.922Z,15.02
2023-03-31T08:32:35.634Z,15.11
2023-03-31T08:35:02.812Z,15.05
2023-03-31T08:37:30.301Z,15.17
2023-03-31T08:39:57.558Z,15.07
2023-03-31T08:42:43.957Z,15.13
2023-03-31T08:45:24.805Z,15.22
2023-03-31T08:48:14.911Z,15.34
2023-03-31T08:50:50.993Z,15.33
2023-03-31T08:53:33.504Z,15.37
2023-03-31T08:56:01.632Z,15.44
2023-03-31T08:58:32.426Z,15.45
2023-03-31T09:00:59.582Z,15.43
2023-03-31T09:04:03.699Z,15.57
2023-03-31T09:07:02.408Z,15.39
2023-03-31T09:09:57.123Z,15.41
2023-03-31T09:12:42.305Z,15.56
2023-03-31T09:15:56.955Z,15.80
2023-03-31T09:18:47.095Z,15.85
2023-03-31T09:21:31.971Z,15.93
2023-03-31T09:24:16.297Z,16.00
2023-03-31T09:26:53.070Z,15.88
2023-03-31T09:29:43.417Z,15.81
2023-03-31T09:32:18.191Z,15.99
2023-03-31T09:34:46.766Z,16.15
2023-03-31T09:37:14.332Z,16.16
2023-03-31T09:39:41.477Z,16.27
2023-03-31T09:42:12.843Z,16.50
2023-03-31T09:44:42.264Z,16.56
2023-03-31T09:47:17.290Z,16.44
2023-03-31T09:49:53.894Z,16.56
2023-03-31T09:52:32.956Z,16.60
2023-03-31T09:55:40.094Z,16.49
2023-03-31T09:58:11.818Z,16.42
2023-03-31T10:00:42.423Z,16.46
2023-03-31T10:03:13.221Z,16.67
2023-03-31T10:05:51.196Z,16.84
2023-03-31T10:08:31.227Z,16.88
2023-03-31T10:11:11.565Z,16.83
2023-03-31T10:13:42.028Z,16.92
2023-03-31T10:16:13.882Z,16.78
2023-03-31T10:18:43.540Z,16.67
2023-03-31T10:21:26.111Z,16.71
2023-03-31T10:23:55.066Z,16.62
2023-03-31T10:26:26.176Z,16.59
2023-03-31T10:28:55.345Z,16.73
2023-03-31T10:31:26.518Z,16.79
2023-03-31T10:33:54.171Z,16.74
2023-03-31T10:36:24.394Z,16.83
2023-03-31T10:38:52.917Z,16.94
2023-03-31T10:41:23.234Z,16.97
2023-03-31T10:43:52.947Z,17.08
2023-03-31T10:46:20.872Z,17.02
2023-03-31T10:48:48.018Z,17.08
2023-03-31T10:51:19.265Z,17.21
2023-03-31T10:53:51.888Z,17.42
2023-03-31T10:56:50.178Z,17.60
2023-03-31T10:59:27.725Z,17.77
2023-03-31T11:02:13.644Z,17.85
2023-03-31T11:04:49.931Z,17.84
2023-03-31T11:07:23.185Z,18.12
2023-03-31T11:10:28.339Z,18.27
2023-03-31T11:13:00.808Z,18.19
2023-03-31T11:15:56.279Z,18.06
2023-03-31T11:18:41.525Z,17.99
2023-03-31T11:21:36.717Z,18.10
2023-03-31T11:24:22.505Z,18.05
2023-03-31T11:27:16.636Z,18.07
2023-03-31T11:29:45.182Z,17.99
2023-03-31T11:32:21.474Z,17.92
2023-03-31T11:35:24.165Z,18.02
2023-03-31T11:37:52.958Z,18.11
2023-03-31T11:40:23.126Z,17.98
2023-03-31T11:42:57.476Z,18.01
2023-03-31T11:45:56.748Z,18.11
2023-03-31T11:48:33.876Z,18.05
2023-03-31T11:51:03.590Z,17.93
2023-03-31T11:53:33.756Z,17.82
2023-03-31T11:56:02.554Z,18.11
2023-03-31T11:58:36.829Z,18.35
2023-03-31T12:01:17.104Z,18.32
2023-03-31T12:04:03.106Z,18.37
2023-03-31T12:06:32.739Z,18.32
2023-03-31T12:09:22.136Z,18.49
2023-03-31T12:12:09.785Z,18.60
2023-03-31T12:14:48.864Z,18.63
2023-03-31T12:17:20.285Z,18.61
2023-03-31T12:20:00.502Z,18.54
2023-03-31T12:22:38.945Z,18.47
2023-03-31T12:25:09.199Z,18.52
2023-03-31T12:27:40.455Z,18.43
2023-03-31T12:30:22.993Z,18.47
2023-03-31T12:32:56.027Z,18.47
2023-03-31T12:35:28.671Z,18.63
2023-03-31T12:38:35.031Z,18.61
2023-03-31T12:41:16.286Z,18.60
2023-03-31T12:44:34.560Z,18.68
2023-03-31T12:47:29.774Z,18.64
2023-03-31T12:50:03.750Z,18.69
2023-03-31T12:52:49.786Z,18.93
2023-03-31T12:55:24.090Z,18.92
2023-03-31T12:57:51.550Z,18.97
2023-03-31T13:00:26.583Z,19.05
2023-03-31T13:03:33.998Z,18.79
2023-03-31T13:06:02.493Z,18.89
2023-03-31T13:08:48.811Z,19.13
2023-03-31T13:11:19.717Z,19.35
2023-03-31T13:14:14.031Z,19.43
2023-03-31T13:16:41.225Z,19.63
2023-03-31T13:19:12.966Z,19.67
2023-03-31T13:21:58.019Z,19.56
2023-03-31T13:24:28.246Z,19.31
2023-03-31T13:26:59.139Z,19.25
2023-03-31T13:29:44.283Z,19.14
2023-03-31T13:32:23.810Z,19.18
2023-03-31T13:35:17.861Z,19.27
2023-03-31T13:38:03.251Z,19.28
2023-03-31T13:40:54.865Z,19.18
2023-03-31T13:43:38.403Z,19.06
2023-03-31T13:46:36.911Z,18.91
2023-03-31T13:49:33.228Z,18.82
2023-03-31T13:52:09.344Z,18.76
2023-03-31T13:54:54.079Z,18.70
2023-03-31T13:57:43.373Z,18.70
2023-03-31T14:00:48.048Z,18.63
2023-03-31T14:03:32.744Z,18.61
2023-03-31T14:06:10.790Z,18.57
2023-03-31T14:09:01.192Z,18.57
2023-03-31T14:11:30.555Z,18.64
2023-03-31T14:14:10.374Z,18.71
2023-03-31T14:16:40.854Z,18.77
2023-03-31T14:19:17.018Z,18.78
2023-03-31T14:21:48.890Z,18.76
2023-03-31T14:24:53.776Z,18.70
2023-03-31T14:27:25.688Z,18.72
2023-03-31T14:29:57.952Z,18.67
2023-03-31T14:32:38.527Z,18.69
2023-03-31T14:35:13.816Z,18.64
2023-03-31T14:37:41.129Z,18.62
2023-03-31T14:40:13.876Z,18.60
2023-03-31T14:42:41.562Z,18.70
2023-03-31T14:45:31.502Z,18.81
2023-03-31T14:48:19.935Z,18.81
2023-03-31T14:50:47.336Z,18.72
2023-03-31T14:53:16.286Z,18.68
2023-03-31T14:58:26.988Z,18.81
2023-03-31T15:00:54.386Z,18.70
2023-03-31T15:03:22.132Z,18.54
2023-03-31T15:05:50.383Z,18.56
2023-03-31T15:08:23.102Z,18.31
2023-03-31T15:10:58.811Z,18.26
2023-03-31T15:13:35.890Z,18.21
2023-03-31T15:16:30.873Z,18.19
2023-03-31T15:19:00.206Z,18.10
2023-03-31T15:21:28.904Z,17.89
2023-03-31T15:23:56.940Z,17.82
2023-03-31T15:26:40.730Z,17.74
2023-03-31T15:29:17.690Z,17.65
2023-03-31T15:31:45.008Z,17.49
2023-03-31T15:34:28.076Z,17.33
2023-03-31T15:36:56.894Z,17.20
2023-03-31T15:39:26.377Z,17.19
2023-03-31T15:41:54.465Z,17.03
2023-03-31T15:44:44.966Z,16.93
2023-03-31T15:47:16.407Z,16.80
2023-03-31T15:50:13.314Z,16.75
2023-03-31T15:52:49.634Z,16.73
2023-03-31T15:55:27.254Z,16.71
2023-03-31T15:57:56.164Z,16.77
2023-03-31T16:00:46.639Z,16.68
2023-03-31T16:03:28.759Z,16.66
2023-03-31T16:05:57.395Z,16.57
2023-03-31T16:08:32.261Z,16.40
2023-03-31T16:11:07.376Z,16.39
2023-03-31T16:16:08.458Z,16.08
2023-03-31T16:18:39.143Z,15.84
2023-03-31T16:21:08.858Z,15.73
2023-03-31T16:23:40.741Z,15.67
2023-03-31T16:26:08.646Z,15.58
2023-03-31T16:28:37.420Z,15.57
2023-03-31T16:31:06.079Z,15.54
2023-03-31T16:33:53.521Z,15.49
2023-03-31T16:36:21.093Z,15.39
2023-03-31T16:38:48.311Z,15.34
2023-03-31T16:41:16.011Z,15.40
2023-03-31T16:43:45.505Z,15.31
2023-03-31T16:46:12.818Z,15.31
2023-03-31T16:48:40.061Z,15.33
2023-03-31T16:51:07.565Z,15.22
2023-03-31T16:53:36.143Z,15.16
2023-03-31T16:56:05.085Z,15.14
2023-03-31T16:58:32.665Z,15.17
2023-03-31T17:01:00.260Z,15.12
2023-03-31T17:03:28.004Z,15.18
2023-03-31T17:05:59.065Z,15.07
2023-03-31T17:08:27.660Z,15.02
2023-03-31T17:10:58.775Z,14.99
2023-03-31T17:13:26.395Z,14.89
2023-03-31T17:16:01.323Z,14.91
2023-03-31T17:18:36.133Z,14.84
2023-03-31T17:21:11.728Z,14.84
2023-03-31T17:23:39.767Z,14.75
2023-03-31T17:26:09.709Z,14.80
2023-03-31T17:28:37.132Z,14.71
2023-03-31T17:31:18.111Z,14.69
2023-03-31T17:33:46.329Z,14.62
2023-03-31T17:36:15.431Z,14.63
2023-03-31T17:38:42.764Z,14.63
2023-03-31T17:41:12.910Z,14.62
2023-03-31T17:43:40.841Z,14.66
2023-03-31T17:46:13.129Z,14.65
2023-03-31T17:48:42.265Z,14.64
2023-03-31T17:51:13.833Z,14.55
2023-03-31T17:53:42.596Z,14.59
2023-03-31T17:56:09.953Z,14.53
2023-03-31T17:58:37.151Z,14.45
2023-03-31T18:01:07.815Z,14.45
2023-03-31T18:03:35.616Z,14.47
2023-03-31T18:06:07.828Z,14.41
2023-03-31T18:08:36.121Z,14.39
2023-03-31T18:11:05.235Z,14.44
2023-03-31T18:13:34.730Z,14.43
2023-03-31T18:16:02.618Z,14.39
2023-03-31T18:18:30.046Z,14.34
2023-03-31T18:20:57.429Z,14.28
2023-03-31T18:23:24.914Z,14.30
2023-03-31T18:25:52.732Z,14.25
2023-03-31T18:28:20.960Z,14.20
2023-03-31T18:30:48.774Z,14.24
2023-03-31T18:33:16.540Z,14.27
2023-03-31T18:35:44.394Z,14.29
2023-03-31T18:38:12.116Z,14.22
2023-03-31T18:40:39.369Z,14.13
2023-03-31T18:43:06.651Z,14.02
2023-03-31T18:45:34.362Z,14.14
2023-03-31T18:48:02.481Z,14.16
2023-03-31T18:50:30.616Z,14.11
2023-03-31T18:52:58.138Z,14.05
2023-03-31T18:55:25.378Z,14.00
2023-03-31T18:57:52.623Z,13.96
2023-03-31T19:00:20.605Z,13.98
2023-03-31T19:02:48.574Z,13.93
2023-03-31T19:05:15.965Z,13.85
2023-03-31T19:07:43.473Z,13.68
2023-03-31T19:10:10.887Z,13.49
2023-03-31T19:12:38.044Z,13.40
2023-03-31T19:15:07.102Z,13.22
2023-03-31T19:17:34.289Z,13.20
2023-03-31T19:20:01.668Z,13.07
2023-03-31T19:22:30.029Z,12.98
2023-03-31T19:24:57.304Z,12.89
2023-03-31T19:27:24.434Z,12.88
2023-03-31T19:29:51.942Z,12.84
2023-03-31T19:32:19.284Z,12.65
2023-03-31T19:34:46.581Z,12.60
2023-03-31T19:37:14.079Z,12.50
2023-03-31T19:39:41.438Z,12.39
2023-03-31T19:42:10.639Z,12.35
2023-03-31T19:44:38.270Z,12.33
2023-03-31T19:47:05.829Z,12.25
2023-03-31T19:49:33.090Z,12.17
2023-03-31T19:52:00.852Z,12.15
2023-03-31T19:54:28.700Z,12.06
2023-03-31T19:56:56.108Z,11.92
2023-03-31T19:59:23.801Z,11.84
2023-03-31T20:01:51.610Z,11.78
2023-03-31T20:04:20.958Z,11.71
2023-03-31T20:06:49.571Z,11.71
2023-03-31T20:09:17.350Z,11.60
2023-03-31T20:11:45.431Z,11.60
2023-03-31T20:14:15.061Z,11.62
2023-03-31T20:16:42.313Z,11.58
2023-03-31T20:19:13.059Z,11.57
2023-03-31T20:21:40.768Z,11.49
2023-03-31T20:24:08.472Z,11.34
2023-03-31T20:26:36.167Z,11.20
2023-03-31T20:29:04.009Z,11.16
2023-03-31T20:31:36.529Z,11.09
2023-03-31T20:34:12.791Z,11.07
2023-03-31T20:36:41.295Z,10.97
2023-03-31T20:39:09.217Z,10.94
2023-03-31T20:41:37.388Z,10.93
2023-03-31T20:44:07.405Z,10.88
2023-03-31T20:46:35.064Z,10.89
2023-03-31T20:49:02.372Z,10.89
2023-03-31T20:51:34.329Z,10.88
2023-03-31T20:54:02.031Z,10.86
2023-03-31T20:56:34.995Z,10.85
2023-03-31T20:59:04.188Z,10.88
2023-03-31T21:01:33.348Z,10.83
2023-03-31T21:04:02.563Z,10.78
2023-03-31T21:06:32.820Z,10.74
2023-03-31T21:09:00.166Z,10.69
2023-03-31T21:11:27.484Z,10.68
2023-03-31T21:13:55.099Z,10.70
2023-03-31T21:16:23.094Z,10.65
2023-03-31T21:18:51.780Z,10.64
2023-03-31T21:21:19.598Z,10.71
2023-03-31T21:23:47.073Z,10.74
2023-03-31T21:26:15.794Z,10.79
2023-03-31T21:28:44.078Z,10.79
2023-03-31T21:31:12.531Z,10.83
2023-03-31T21:33:41.726Z,10.79
2023-03-31T21:36:13.279Z,10.83
2023-03-31T21:38:40.940Z,10.80
2023-03-31T21:41:10.899Z,10.81
2023-03-31T21:43:38.398Z,10.79
2023-03-31T21:46:06.677Z,10.80
2023-03-31T21:48:34.824Z,10.78
2023-03-31T21:51:02.968Z,10.79
2023-03-31T21:53:31.497Z,10.75
2023-03-31T21:55:59.240Z,10.76
2023-03-31T21:58:28.852Z,10.77
2023-03-31T22:01:01.249Z,10.79
2023-03-31T22:03:29.227Z,10.75
2023-03-31T22:05:57.238Z,10.68
2023-03-31T22:08:27.017Z,10.67
2023-03-31T22:10:55.992Z,10.59
2023-03-31T22:13:23.832Z,10.68
2023-03-31T22:15:51.106Z,10.68
2023-03-31T22:18:19.376Z,10.69
2023-03-31T22:20:46.746Z,10.70
2023-03-31T22:23:14.916Z,10.79
2023-03-31T22:25:42.653Z,10.73
2023-03-31T22:28:10.392Z,10.74
2023-03-31T22:30:37.821Z,10.75
2023-03-31T22:33:05.554Z,10.83
2023-03-31T22:35:33.102Z,10.82
2023-03-31T22:38:01.581Z,10.82
2023-03-31T22:40:30.198Z,10.82
2023-03-31T22:42:58.451Z,10.74
2023-03-31T22:45:25.845Z,10.73
2023-03-31T22:47:53.525Z,10.67
2023-03-31T22:50:21.089Z,10.71
2023-03-31T22:52:48.325Z,10.69
2023-03-31T22:55:16.159Z,10.72
2023-03-31T22:57:43.415Z,10.58
2023-03-31T23:00:12.260Z,10.54
2023-03-31T23:02:40.581Z,10.53
2023-03-31T23:05:08.221Z,10.51
2023-03-31T23:07:36.076Z,10.47
2023-03-31T23:10:04.286Z,10.53
2023-03-31T23:12:31.476Z,10.54
2023-03-31T23:14:58.671Z,10.55
2023-03-31T23:17:26.504Z,10.52
2023-03-31T23:19:53.842Z,10.45
2023-03-31T23:22:21.605Z,10.42
2023-03-31T23:24:49.649Z,10.41
2023-03-31T23:27:16.798Z,10.35
2023-03-31T23:29:44.509Z,10.40
2023-03-31T23:32:13.082Z,10.41
2023-03-31T23:34:41.887Z,10.29
2023-03-31T23:37:11.013Z,10.29
2023-03-31T23:39:38.752Z,10.21
2023-03-31T23:42:07.318Z,10.17
2023-03-31T23:44:37.853Z,10.18
2023-03-31T23:47:06.111Z,10.19
2023-03-31T23:49:33.706Z,10.35
2023-03-31T23:52:01.277Z,10.38
2023-03-31T23:54:28.967Z,10.49
2023-03-31T23:56:56.203Z,10.44
2023-03-31T23:59:23.556Z,10.42
